sensor_id;sensor_type;location;lat;lon;timestamp;temperature;humidity
68485;DHT22;55472;50.060;21.960;2023-04-19T00:02:07;10.70;81.00
68485;DHT22;55472;50.060;21.960;2023-04-19T00:04:34;10.70;81.20
68485;DHT22;55472;50.060;21.960;2023-04-19T00:07:03;10.70;81.40
68485;DHT22;55472;50.060;21.960;2023-04-19T00:09:29;10.70;81.70
68485;DHT22;55472;50.060;21.960;2023-04-19T00:11:55;10.60;81.70
68485;DHT22;55472;50.060;21.960;2023-04-19T00:14:21;10.60;81.80
68485;DHT22;55472;50.060;21.960;2023-04-19T00:16:48;10.60;82.00
68485;DHT22;55472;50.060;21.960;2023-04-19T00:19:13;10.60;82.10
68485;DHT22;55472;50.060;21.960;2023-04-19T00:21:40;10.60;82.10
68485;DHT22;55472;50.060;21.960;2023-04-19T00:24:06;10.60;82.10
68485;DHT22;55472;50.060;21.960;2023-04-19T00:26:32;10.60;82.20
68485;DHT22;55472;50.060;21.960;2023-04-19T00:28:58;10.60;82.40
68485;DHT22;55472;50.060;21.960;2023-04-19T00:31:25;10.50;82.50
68485;DHT22;55472;50.060;21.960;2023-04-19T00:33:51;10.50;82.80
68485;DHT22;55472;50.060;21.960;2023-04-19T00:36:17;10.50;82.70
68485;DHT22;55472;50.060;21.960;2023-04-19T00:38:43;10.50;82.80
68485;DHT22;55472;50.060;21.960;2023-04-19T00:41:09;10.50;82.90
68485;DHT22;55472;50.060;21.960;2023-04-19T00:43:35;10.50;82.90
68485;DHT22;55472;50.060;21.960;2023-04-19T00:46:02;10.50;83.00
68485;DHT22;55472;50.060;21.960;2023-04-19T00:48:28;10.50;83.00
68485;DHT22;55472;50.060;21.960;2023-04-19T00:50:56;10.50;83.10
68485;DHT22;55472;50.060;21.960;2023-04-19T00:53:22;10.50;83.20
68485;DHT22;55472;50.060;21.960;2023-04-19T00:55:48;10.50;83.30
68485;DHT22;55472;50.060;21.960;2023-04-19T00:58:17;10.40;83.60
68485;DHT22;55472;50.060;21.960;2023-04-19T01:03:19;10.40;84.10
68485;DHT22;55472;50.060;21.960;2023-04-19T01:05:45;10.40;84.30
68485;DHT22;55472;50.060;21.960;2023-04-19T01:08:13;10.40;84.40
68485;DHT22;55472;50.060;21.960;2023-04-19T01:10:39;10.40;84.40
68485;DHT22;55472;50.060;21.960;2023-04-19T01:13:05;10.40;84.30
68485;DHT22;55472;50.060;21.960;2023-04-19T01:15:32;10.30;84.30
68485;DHT22;55472;50.060;21.960;2023-04-19T01:17:57;10.30;84.70
68485;DHT22;55472;50.060;21.960;2023-04-19T01:20:24;10.30;85.00
68485;DHT22;55472;50.060;21.960;2023-04-19T01:22:50;10.30;85.00
68485;DHT22;55472;50.060;21.960;2023-04-19T01:25:16;10.20;85.40
68485;DHT22;55472;50.060;21.960;2023-04-19T01:27:42;10.20;85.80
68485;DHT22;55472;50.060;21.960;2023-04-19T01:30:09;10.20;85.80
68485;DHT22;55472;50.060;21.960;2023-04-19T01:32:35;10.20;85.90
68485;DHT22;55472;50.060;21.960;2023-04-19T01:35:02;10.20;86.10
68485;DHT22;55472;50.060;21.960;2023-04-19T01:40:25;10.20;86.00
68485;DHT22;55472;50.060;21.960;2023-04-19T01:42:51;10.10;86.00
68485;DHT22;55472;50.060;21.960;2023-04-19T01:45:18;10.20;86.20
68485;DHT22;55472;50.060;21.960;2023-04-19T01:47:44;10.20;86.40
68485;DHT22;55472;50.060;21.960;2023-04-19T01:50:11;10.20;86.30
68485;DHT22;55472;50.060;21.960;2023-04-19T01:52:37;10.10;86.40
68485;DHT22;55472;50.060;21.960;2023-04-19T01:55:03;10.10;86.50
68485;DHT22;55472;50.060;21.960;2023-04-19T01:57:29;10.10;86.60
68485;DHT22;55472;50.060;21.960;2023-04-19T01:59:56;10.10;86.90
68485;DHT22;55472;50.060;21.960;2023-04-19T02:02:24;10.10;87.00
68485;DHT22;55472;50.060;21.960;2023-04-19T02:04:50;10.10;87.10
68485;DHT22;55472;50.060;21.960;2023-04-19T02:07:16;10.00;87.10
68485;DHT22;55472;50.060;21.960;2023-04-19T02:09:42;10.10;87.20
68485;DHT22;55472;50.060;21.960;2023-04-19T02:12:08;10.00;87.30
68485;DHT22;55472;50.060;21.960;2023-04-19T02:14:34;10.00;87.40
68485;DHT22;55472;50.060;21.960;2023-04-19T02:17:00;10.00;87.50
68485;DHT22;55472;50.060;21.960;2023-04-19T02:19:27;10.00;87.50
68485;DHT22;55472;50.060;21.960;2023-04-19T02:21:53;10.00;87.50
68485;DHT22;55472;50.060;21.960;2023-04-19T02:24:23;10.00;87.70
68485;DHT22;55472;50.060;21.960;2023-04-19T02:26:49;10.00;87.60
68485;DHT22;55472;50.060;21.960;2023-04-19T02:29:15;9.90;87.50
68485;DHT22;55472;50.060;21.960;2023-04-19T02:31:43;10.00;87.50
68485;DHT22;55472;50.060;21.960;2023-04-19T02:34:11;9.90;87.60
68485;DHT22;55472;50.060;21.960;2023-04-19T02:36:37;9.90;87.40
68485;DHT22;55472;50.060;21.960;2023-04-19T02:39:03;9.90;87.40
68485;DHT22;55472;50.060;21.960;2023-04-19T02:41:30;9.90;87.40
68485;DHT22;55472;50.060;21.960;2023-04-19T02:43:56;9.90;87.40
68485;DHT22;55472;50.060;21.960;2023-04-19T02:46:22;9.90;87.30
68485;DHT22;55472;50.060;21.960;2023-04-19T02:48:48;9.80;87.20
68485;DHT22;55472;50.060;21.960;2023-04-19T02:51:15;9.80;87.20
68485;DHT22;55472;50.060;21.960;2023-04-19T02:53:42;9.80;87.30
68485;DHT22;55472;50.060;21.960;2023-04-19T02:56:08;9.80;87.10
68485;DHT22;55472;50.060;21.960;2023-04-19T02:58:35;9.80;87.10
68485;DHT22;55472;50.060;21.960;2023-04-19T03:01:03;9.80;87.30
68485;DHT22;55472;50.060;21.960;2023-04-19T03:03:30;9.70;87.20
68485;DHT22;55472;50.060;21.960;2023-04-19T03:05:56;9.70;87.30
68485;DHT22;55472;50.060;21.960;2023-04-19T03:08:23;9.70;87.30
68485;DHT22;55472;50.060;21.960;2023-04-19T03:10:49;9.70;87.40
68485;DHT22;55472;50.060;21.960;2023-04-19T03:13:15;9.70;87.30
68485;DHT22;55472;50.060;21.960;2023-04-19T03:15:41;9.70;87.30
68485;DHT22;55472;50.060;21.960;2023-04-19T03:18:07;9.70;87.30
68485;DHT22;55472;50.060;21.960;2023-04-19T03:20:33;9.60;87.30
68485;DHT22;55472;50.060;21.960;2023-04-19T03:22:59;9.60;87.30
68485;DHT22;55472;50.060;21.960;2023-04-19T03:25:25;9.60;87.20
68485;DHT22;55472;50.060;21.960;2023-04-19T03:27:52;9.60;87.10
68485;DHT22;55472;50.060;21.960;2023-04-19T03:30:18;9.60;87.10
68485;DHT22;55472;50.060;21.960;2023-04-19T03:32:45;9.60;86.60
68485;DHT22;55472;50.060;21.960;2023-04-19T03:35:12;9.60;86.50
68485;DHT22;55472;50.060;21.960;2023-04-19T03:37:38;9.50;86.70
68485;DHT22;55472;50.060;21.960;2023-04-19T03:40:05;9.60;86.70
68485;DHT22;55472;50.060;21.960;2023-04-19T03:42:31;9.50;86.60
68485;DHT22;55472;50.060;21.960;2023-04-19T03:44:57;9.50;86.40
68485;DHT22;55472;50.060;21.960;2023-04-19T03:47:24;9.50;86.40
68485;DHT22;55472;50.060;21.960;2023-04-19T03:49:50;9.50;86.50
68485;DHT22;55472;50.060;21.960;2023-04-19T03:52:16;9.50;86.50
68485;DHT22;55472;50.060;21.960;2023-04-19T03:54:42;9.50;86.30
68485;DHT22;55472;50.060;21.960;2023-04-19T03:57:09;9.50;86.30
68485;DHT22;55472;50.060;21.960;2023-04-19T03:59:37;9.50;86.50
68485;DHT22;55472;50.060;21.960;2023-04-19T04:02:05;9.50;86.60
68485;DHT22;55472;50.060;21.960;2023-04-19T04:04:31;9.50;86.90
68485;DHT22;55472;50.060;21.960;2023-04-19T04:06:57;9.50;86.80
68485;DHT22;55472;50.060;21.960;2023-04-19T04:09:23;9.50;87.10
68485;DHT22;55472;50.060;21.960;2023-04-19T04:11:50;9.50;87.20
68485;DHT22;55472;50.060;21.960;2023-04-19T04:14:16;9.50;87.40
68485;DHT22;55472;50.060;21.960;2023-04-19T04:16:42;9.50;87.30
68485;DHT22;55472;50.060;21.960;2023-04-19T04:19:08;9.50;87.60
68485;DHT22;55472;50.060;21.960;2023-04-19T04:21:34;9.50;87.70
68485;DHT22;55472;50.060;21.960;2023-04-19T04:24:00;9.50;87.90
68485;DHT22;55472;50.060;21.960;2023-04-19T04:26:27;9.50;88.00
68485;DHT22;55472;50.060;21.960;2023-04-19T04:28:56;9.50;88.30
68485;DHT22;55472;50.060;21.960;2023-04-19T04:31:22;9.50;88.40
68485;DHT22;55472;50.060;21.960;2023-04-19T04:33:48;9.50;88.80
68485;DHT22;55472;50.060;21.960;2023-04-19T04:36:14;9.50;89.30
68485;DHT22;55472;50.060;21.960;2023-04-19T04:38:40;9.50;89.70
68485;DHT22;55472;50.060;21.960;2023-04-19T04:41:08;9.40;90.20
68485;DHT22;55472;50.060;21.960;2023-04-19T04:43:34;9.50;90.20
68485;DHT22;55472;50.060;21.960;2023-04-19T04:46:00;9.40;90.30
68485;DHT22;55472;50.060;21.960;2023-04-19T04:48:26;9.40;90.40
68485;DHT22;55472;50.060;21.960;2023-04-19T04:50:52;9.40;90.70
68485;DHT22;55472;50.060;21.960;2023-04-19T04:53:18;9.40;91.30
68485;DHT22;55472;50.060;21.960;2023-04-19T04:55:45;9.40;91.30
68485;DHT22;55472;50.060;21.960;2023-04-19T04:58:11;9.40;91.40
68485;DHT22;55472;50.060;21.960;2023-04-19T05:00:37;9.40;91.80
68485;DHT22;55472;50.060;21.960;2023-04-19T05:03:03;9.40;91.90
68485;DHT22;55472;50.060;21.960;2023-04-19T05:05:30;9.30;92.20
68485;DHT22;55472;50.060;21.960;2023-04-19T05:07:56;9.30;92.20
68485;DHT22;55472;50.060;21.960;2023-04-19T05:10:22;9.30;92.30
68485;DHT22;55472;50.060;21.960;2023-04-19T05:12:48;9.30;92.50
68485;DHT22;55472;50.060;21.960;2023-04-19T05:15:15;9.30;92.30
68485;DHT22;55472;50.060;21.960;2023-04-19T05:17:41;9.30;92.60
68485;DHT22;55472;50.060;21.960;2023-04-19T05:20:08;9.30;92.60
68485;DHT22;55472;50.060;21.960;2023-04-19T05:22:34;9.30;92.80
68485;DHT22;55472;50.060;21.960;2023-04-19T05:25:00;9.30;92.90
68485;DHT22;55472;50.060;21.960;2023-04-19T05:27:26;9.30;93.10
68485;DHT22;55472;50.060;21.960;2023-04-19T05:29:53;9.30;93.00
68485;DHT22;55472;50.060;21.960;2023-04-19T05:32:19;9.30;93.00
68485;DHT22;55472;50.060;21.960;2023-04-19T05:34:45;9.30;93.00
68485;DHT22;55472;50.060;21.960;2023-04-19T05:37:11;9.30;93.10
68485;DHT22;55472;50.060;21.960;2023-04-19T05:39:37;9.40;93.00
68485;DHT22;55472;50.060;21.960;2023-04-19T05:42:03;9.40;92.90
68485;DHT22;55472;50.060;21.960;2023-04-19T05:44:30;9.40;92.40
68485;DHT22;55472;50.060;21.960;2023-04-19T05:46:56;9.40;92.10
68485;DHT22;55472;50.060;21.960;2023-04-19T05:49:22;9.40;92.10
68485;DHT22;55472;50.060;21.960;2023-04-19T05:51:48;9.40;91.70
68485;DHT22;55472;50.060;21.960;2023-04-19T05:54:15;9.40;90.90
68485;DHT22;55472;50.060;21.960;2023-04-19T05:56:41;9.40;91.30
68485;DHT22;55472;50.060;21.960;2023-04-19T05:59:07;9.30;90.90
68485;DHT22;55472;50.060;21.960;2023-04-19T06:01:36;9.30;90.80
68485;DHT22;55472;50.060;21.960;2023-04-19T06:04:02;9.30;90.80
68485;DHT22;55472;50.060;21.960;2023-04-19T06:06:28;9.30;90.50
68485;DHT22;55472;50.060;21.960;2023-04-19T06:08:55;9.30;90.60
68485;DHT22;55472;50.060;21.960;2023-04-19T06:11:21;9.30;89.90
68485;DHT22;55472;50.060;21.960;2023-04-19T06:13:47;9.30;90.00
68485;DHT22;55472;50.060;21.960;2023-04-19T06:16:15;9.30;90.00
68485;DHT22;55472;50.060;21.960;2023-04-19T06:18:41;9.30;89.50
68485;DHT22;55472;50.060;21.960;2023-04-19T06:21:07;9.30;89.90
68485;DHT22;55472;50.060;21.960;2023-04-19T06:23:34;9.30;90.10
68485;DHT22;55472;50.060;21.960;2023-04-19T06:26:00;9.30;89.80
68485;DHT22;55472;50.060;21.960;2023-04-19T06:28:26;9.30;89.90
68485;DHT22;55472;50.060;21.960;2023-04-19T06:30:52;9.30;89.90
68485;DHT22;55472;50.060;21.960;2023-04-19T06:33:18;9.30;89.80
68485;DHT22;55472;50.060;21.960;2023-04-19T06:35:44;9.30;89.10
68485;DHT22;55472;50.060;21.960;2023-04-19T06:38:11;9.20;89.70
68485;DHT22;55472;50.060;21.960;2023-04-19T06:40:37;9.20;89.90
68485;DHT22;55472;50.060;21.960;2023-04-19T06:43:03;9.30;89.70
68485;DHT22;55472;50.060;21.960;2023-04-19T06:45:29;9.30;89.60
68485;DHT22;55472;50.060;21.960;2023-04-19T06:47:56;9.30;89.70
68485;DHT22;55472;50.060;21.960;2023-04-19T06:50:22;9.30;89.70
68485;DHT22;55472;50.060;21.960;2023-04-19T06:52:49;9.30;89.60
68485;DHT22;55472;50.060;21.960;2023-04-19T06:55:15;9.30;89.90
68485;DHT22;55472;50.060;21.960;2023-04-19T06:57:41;9.30;90.00
68485;DHT22;55472;50.060;21.960;2023-04-19T07:00:08;9.30;90.20
68485;DHT22;55472;50.060;21.960;2023-04-19T07:02:35;9.30;90.20
68485;DHT22;55472;50.060;21.960;2023-04-19T07:05:01;9.30;90.20
68485;DHT22;55472;50.060;21.960;2023-04-19T07:07:28;9.30;90.00
68485;DHT22;55472;50.060;21.960;2023-04-19T07:09:54;9.40;89.90
68485;DHT22;55472;50.060;21.960;2023-04-19T07:12:21;9.40;90.30
68485;DHT22;55472;50.060;21.960;2023-04-19T07:14:46;9.40;90.00
68485;DHT22;55472;50.060;21.960;2023-04-19T07:17:13;9.40;89.80
68485;DHT22;55472;50.060;21.960;2023-04-19T07:19:39;9.40;89.30
68485;DHT22;55472;50.060;21.960;2023-04-19T07:22:05;9.40;89.30
68485;DHT22;55472;50.060;21.960;2023-04-19T07:24:31;9.40;89.60
68485;DHT22;55472;50.060;21.960;2023-04-19T07:26:57;9.40;89.60
68485;DHT22;55472;50.060;21.960;2023-04-19T07:29:23;9.40;89.80
68485;DHT22;55472;50.060;21.960;2023-04-19T07:31:52;9.40;89.60
68485;DHT22;55472;50.060;21.960;2023-04-19T07:34:20;9.40;89.70
68485;DHT22;55472;50.060;21.960;2023-04-19T07:36:46;9.50;89.80
68485;DHT22;55472;50.060;21.960;2023-04-19T07:39:12;9.50;89.70
68485;DHT22;55472;50.060;21.960;2023-04-19T07:41:38;9.50;88.90
68485;DHT22;55472;50.060;21.960;2023-04-19T07:44:04;9.40;89.80
68485;DHT22;55472;50.060;21.960;2023-04-19T07:46:30;9.40;89.60
68485;DHT22;55472;50.060;21.960;2023-04-19T07:48:56;9.50;89.50
68485;DHT22;55472;50.060;21.960;2023-04-19T07:51:22;9.50;89.00
68485;DHT22;55472;50.060;21.960;2023-04-19T07:53:49;9.50;88.90
68485;DHT22;55472;50.060;21.960;2023-04-19T07:56:16;9.50;89.00
68485;DHT22;55472;50.060;21.960;2023-04-19T07:58:42;9.60;89.40
68485;DHT22;55472;50.060;21.960;2023-04-19T08:01:08;9.60;89.20
68485;DHT22;55472;50.060;21.960;2023-04-19T08:03:34;9.60;89.00
68485;DHT22;55472;50.060;21.960;2023-04-19T08:06:05;9.60;89.10
68485;DHT22;55472;50.060;21.960;2023-04-19T08:08:35;9.60;88.90
68485;DHT22;55472;50.060;21.960;2023-04-19T08:11:02;9.60;89.10
68485;DHT22;55472;50.060;21.960;2023-04-19T08:13:29;9.60;88.80
68485;DHT22;55472;50.060;21.960;2023-04-19T08:15:55;9.60;89.30
68485;DHT22;55472;50.060;21.960;2023-04-19T08:18:22;9.60;89.40
68485;DHT22;55472;50.060;21.960;2023-04-19T08:20:49;9.60;89.10
68485;DHT22;55472;50.060;21.960;2023-04-19T08:23:15;9.70;89.20
68485;DHT22;55472;50.060;21.960;2023-04-19T08:25:43;9.70;89.50
68485;DHT22;55472;50.060;21.960;2023-04-19T08:28:10;9.70;89.20
68485;DHT22;55472;50.060;21.960;2023-04-19T08:30:37;9.70;89.30
68485;DHT22;55472;50.060;21.960;2023-04-19T08:33:03;9.80;89.10
68485;DHT22;55472;50.060;21.960;2023-04-19T08:35:29;9.80;88.90
68485;DHT22;55472;50.060;21.960;2023-04-19T08:37:55;9.80;88.50
68485;DHT22;55472;50.060;21.960;2023-04-19T08:40:21;9.80;88.50
68485;DHT22;55472;50.060;21.960;2023-04-19T08:42:47;9.90;88.50
68485;DHT22;55472;50.060;21.960;2023-04-19T08:45:15;9.90;88.50
68485;DHT22;55472;50.060;21.960;2023-04-19T08:47:41;9.90;88.30
68485;DHT22;55472;50.060;21.960;2023-04-19T08:50:08;9.90;88.70
68485;DHT22;55472;50.060;21.960;2023-04-19T08:52:36;10.00;88.60
68485;DHT22;55472;50.060;21.960;2023-04-19T08:55:04;10.00;88.50
68485;DHT22;55472;50.060;21.960;2023-04-19T08:57:31;10.10;88.40
68485;DHT22;55472;50.060;21.960;2023-04-19T08:59:59;10.20;88.10
68485;DHT22;55472;50.060;21.960;2023-04-19T09:02:25;10.30;88.00
68485;DHT22;55472;50.060;21.960;2023-04-19T09:04:52;10.30;88.20
68485;DHT22;55472;50.060;21.960;2023-04-19T09:07:25;10.40;88.00
68485;DHT22;55472;50.060;21.960;2023-04-19T09:12:33;10.60;87.40
68485;DHT22;55472;50.060;21.960;2023-04-19T09:15:01;10.90;86.70
68485;DHT22;55472;50.060;21.960;2023-04-19T09:17:32;11.30;85.40
68485;DHT22;55472;50.060;21.960;2023-04-19T09:19:59;11.60;83.20
68485;DHT22;55472;50.060;21.960;2023-04-19T09:22:25;11.80;83.00
68485;DHT22;55472;50.060;21.960;2023-04-19T09:24:52;12.40;81.70
68485;DHT22;55472;50.060;21.960;2023-04-19T09:32:21;14.40;72.80
68485;DHT22;55472;50.060;21.960;2023-04-19T09:34:59;14.00;73.90
68485;DHT22;55472;50.060;21.960;2023-04-19T09:37:25;13.80;72.80
68485;DHT22;55472;50.060;21.960;2023-04-19T09:39:52;13.70;73.40
68485;DHT22;55472;50.060;21.960;2023-04-19T09:42:18;13.60;74.40
68485;DHT22;55472;50.060;21.960;2023-04-19T09:44:58;13.50;74.40
68485;DHT22;55472;50.060;21.960;2023-04-19T09:47:25;13.30;74.10
68485;DHT22;55472;50.060;21.960;2023-04-19T09:50:08;13.30;75.20
68485;DHT22;55472;50.060;21.960;2023-04-19T09:52:35;13.10;74.90
68485;DHT22;55472;50.060;21.960;2023-04-19T09:55:04;13.00;75.10
68485;DHT22;55472;50.060;21.960;2023-04-19T09:57:32;12.90;75.70
68485;DHT22;55472;50.060;21.960;2023-04-19T10:00:00;12.80;74.90
68485;DHT22;55472;50.060;21.960;2023-04-19T10:02:30;12.60;75.00
68485;DHT22;55472;50.060;21.960;2023-04-19T10:04:58;12.60;75.90
68485;DHT22;55472;50.060;21.960;2023-04-19T10:07:25;12.50;76.80
68485;DHT22;55472;50.060;21.960;2023-04-19T10:09:57;12.40;76.40
68485;DHT22;55472;50.060;21.960;2023-04-19T10:12:25;12.30;77.00
68485;DHT22;55472;50.060;21.960;2023-04-19T10:14:55;12.30;77.40
68485;DHT22;55472;50.060;21.960;2023-04-19T10:17:23;12.20;77.60
68485;DHT22;55472;50.060;21.960;2023-04-19T10:19:58;12.20;77.40
68485;DHT22;55472;50.060;21.960;2023-04-19T10:22:32;12.20;77.30
68485;DHT22;55472;50.060;21.960;2023-04-19T10:25:14;12.10;77.70
68485;DHT22;55472;50.060;21.960;2023-04-19T10:27:42;12.10;77.90
68485;DHT22;55472;50.060;21.960;2023-04-19T10:30:21;12.10;77.70
68485;DHT22;55472;50.060;21.960;2023-04-19T10:32:55;12.10;77.90
68485;DHT22;55472;50.060;21.960;2023-04-19T10:35:32;12.10;77.50
68485;DHT22;55472;50.060;21.960;2023-04-19T10:38:14;12.10;77.90
68485;DHT22;55472;50.060;21.960;2023-04-19T10:43:17;12.20;77.80
68485;DHT22;55472;50.060;21.960;2023-04-19T10:45:45;12.20;77.40
68485;DHT22;55472;50.060;21.960;2023-04-19T10:51:16;12.20;77.50
68485;DHT22;55472;50.060;21.960;2023-04-19T10:53:50;12.20;76.50
68485;DHT22;55472;50.060;21.960;2023-04-19T10:56:55;12.20;77.10
68485;DHT22;55472;50.060;21.960;2023-04-19T11:02:33;12.20;77.50
68485;DHT22;55472;50.060;21.960;2023-04-19T11:05:04;12.20;77.10
68485;DHT22;55472;50.060;21.960;2023-04-19T11:07:36;12.30;77.40
68485;DHT22;55472;50.060;21.960;2023-04-19T11:10:02;12.40;77.00
68485;DHT22;55472;50.060;21.960;2023-04-19T11:13:00;12.50;77.60
68485;DHT22;55472;50.060;21.960;2023-04-19T11:16:30;12.60;77.20
68485;DHT22;55472;50.060;21.960;2023-04-19T11:19:20;12.80;75.90
68485;DHT22;55472;50.060;21.960;2023-04-19T11:21:52;13.00;75.10
68485;DHT22;55472;50.060;21.960;2023-04-19T11:24:25;13.20;74.50
68485;DHT22;55472;50.060;21.960;2023-04-19T11:27:09;13.40;74.50
68485;DHT22;55472;50.060;21.960;2023-04-19T11:29:35;13.70;74.30
68485;DHT22;55472;50.060;21.960;2023-04-19T11:32:05;14.00;73.10
68485;DHT22;55472;50.060;21.960;2023-04-19T11:34:35;14.30;71.70
68485;DHT22;55472;50.060;21.960;2023-04-19T11:37:13;14.60;72.50
68485;DHT22;55472;50.060;21.960;2023-04-19T11:39:48;14.90;70.80
68485;DHT22;55472;50.060;21.960;2023-04-19T11:42:24;15.20;69.00
68485;DHT22;55472;50.060;21.960;2023-04-19T11:44:53;15.40;67.00
68485;DHT22;55472;50.060;21.960;2023-04-19T11:47:25;15.50;66.20
68485;DHT22;55472;50.060;21.960;2023-04-19T11:49:55;15.70;65.70
68485;DHT22;55472;50.060;21.960;2023-04-19T11:52:25;15.90;65.40
68485;DHT22;55472;50.060;21.960;2023-04-19T11:54:52;16.50;65.30
68485;DHT22;55472;50.060;21.960;2023-04-19T11:57:30;16.70;64.60
68485;DHT22;55472;50.060;21.960;2023-04-19T12:00:06;17.00;62.50
68485;DHT22;55472;50.060;21.960;2023-04-19T12:02:39;17.00;62.30
68485;DHT22;55472;50.060;21.960;2023-04-19T12:05:14;17.10;61.80
68485;DHT22;55472;50.060;21.960;2023-04-19T12:08:16;17.20;60.90
68485;DHT22;55472;50.060;21.960;2023-04-19T12:10:55;17.10;60.60
68485;DHT22;55472;50.060;21.960;2023-04-19T12:13:24;17.00;59.80
68485;DHT22;55472;50.060;21.960;2023-04-19T12:15:51;17.00;60.40
68485;DHT22;55472;50.060;21.960;2023-04-19T12:18:17;17.00;60.60
68485;DHT22;55472;50.060;21.960;2023-04-19T12:20:45;17.00;61.60
68485;DHT22;55472;50.060;21.960;2023-04-19T12:23:14;17.10;61.60
68485;DHT22;55472;50.060;21.960;2023-04-19T12:25:41;17.30;60.50
68485;DHT22;55472;50.060;21.960;2023-04-19T12:28:09;17.40;60.10
68485;DHT22;55472;50.060;21.960;2023-04-19T12:30:35;17.50;59.90
68485;DHT22;55472;50.060;21.960;2023-04-19T12:33:02;17.70;60.80
68485;DHT22;55472;50.060;21.960;2023-04-19T12:35:31;17.80;60.70
68485;DHT22;55472;50.060;21.960;2023-04-19T12:38:13;17.90;60.00
68485;DHT22;55472;50.060;21.960;2023-04-19T12:40:39;17.90;60.70
68485;DHT22;55472;50.060;21.960;2023-04-19T12:43:06;18.00;60.30
68485;DHT22;55472;50.060;21.960;2023-04-19T12:45:35;18.10;59.60
68485;DHT22;55472;50.060;21.960;2023-04-19T12:48:11;18.20;59.30
68485;DHT22;55472;50.060;21.960;2023-04-19T12:50:40;18.30;59.50
68485;DHT22;55472;50.060;21.960;2023-04-19T12:53:07;18.30;57.30
68485;DHT22;55472;50.060;21.960;2023-04-19T12:55:34;18.10;58.10
68485;DHT22;55472;50.060;21.960;2023-04-19T12:58:00;18.10;58.40
68485;DHT22;55472;50.060;21.960;2023-04-19T13:00:36;17.90;58.80
68485;DHT22;55472;50.060;21.960;2023-04-19T13:03:08;17.70;59.70
68485;DHT22;55472;50.060;21.960;2023-04-19T13:05:34;17.50;61.00
68485;DHT22;55472;50.060;21.960;2023-04-19T13:08:00;17.20;61.40
68485;DHT22;55472;50.060;21.960;2023-04-19T13:10:26;17.00;61.80
68485;DHT22;55472;50.060;21.960;2023-04-19T13:12:53;16.70;61.80
68485;DHT22;55472;50.060;21.960;2023-04-19T13:15:19;16.50;61.90
68485;DHT22;55472;50.060;21.960;2023-04-19T13:17:45;16.10;62.80
68485;DHT22;55472;50.060;21.960;2023-04-19T13:20:11;15.90;64.20
68485;DHT22;55472;50.060;21.960;2023-04-19T13:22:38;15.70;65.30
68485;DHT22;55472;50.060;21.960;2023-04-19T13:25:04;15.50;67.40
68485;DHT22;55472;50.060;21.960;2023-04-19T13:27:30;15.40;68.70
68485;DHT22;55472;50.060;21.960;2023-04-19T13:29:56;15.20;70.40
68485;DHT22;55472;50.060;21.960;2023-04-19T13:32:23;15.10;71.50
68485;DHT22;55472;50.060;21.960;2023-04-19T13:34:49;14.90;73.40
68485;DHT22;55472;50.060;21.960;2023-04-19T13:37:15;14.80;74.90
68485;DHT22;55472;50.060;21.960;2023-04-19T13:39:41;14.70;75.80
68485;DHT22;55472;50.060;21.960;2023-04-19T13:42:08;14.60;77.00
68485;DHT22;55472;50.060;21.960;2023-04-19T13:44:34;14.50;77.30
68485;DHT22;55472;50.060;21.960;2023-04-19T13:47:01;14.40;77.30
68485;DHT22;55472;50.060;21.960;2023-04-19T13:49:27;14.30;77.30
68485;DHT22;55472;50.060;21.960;2023-04-19T13:51:53;14.30;77.00
68485;DHT22;55472;50.060;21.960;2023-04-19T13:54:19;14.20;76.80
68485;DHT22;55472;50.060;21.960;2023-04-19T13:56:46;14.10;77.60
68485;DHT22;55472;50.060;21.960;2023-04-19T13:59:12;14.00;78.30
68485;DHT22;55472;50.060;21.960;2023-04-19T14:01:38;14.00;78.80
68485;DHT22;55472;50.060;21.960;2023-04-19T14:04:05;13.90;79.10
68485;DHT22;55472;50.060;21.960;2023-04-19T14:06:34;13.90;80.20
68485;DHT22;55472;50.060;21.960;2023-04-19T14:09:00;13.80;79.70
68485;DHT22;55472;50.060;21.960;2023-04-19T14:11:27;13.70;79.10
68485;DHT22;55472;50.060;21.960;2023-04-19T14:13:53;13.60;79.00
68485;DHT22;55472;50.060;21.960;2023-04-19T14:16:20;13.40;79.80
68485;DHT22;55472;50.060;21.960;2023-04-19T14:18:50;13.30;79.00
68485;DHT22;55472;50.060;21.960;2023-04-19T14:21:16;13.20;80.00
68485;DHT22;55472;50.060;21.960;2023-04-19T14:23:43;13.10;79.40
68485;DHT22;55472;50.060;21.960;2023-04-19T14:26:09;13.00;80.00
68485;DHT22;55472;50.060;21.960;2023-04-19T14:28:35;12.90;79.90
68485;DHT22;55472;50.060;21.960;2023-04-19T14:31:02;12.80;79.40
68485;DHT22;55472;50.060;21.960;2023-04-19T14:33:28;12.70;79.10
68485;DHT22;55472;50.060;21.960;2023-04-19T14:35:57;12.60;79.40
68485;DHT22;55472;50.060;21.960;2023-04-19T14:38:23;12.50;79.60
68485;DHT22;55472;50.060;21.960;2023-04-19T14:40:49;12.40;79.30
68485;DHT22;55472;50.060;21.960;2023-04-19T14:43:15;12.40;79.70
68485;DHT22;55472;50.060;21.960;2023-04-19T14:45:42;12.30;80.90
68485;DHT22;55472;50.060;21.960;2023-04-19T14:48:08;12.30;81.70
68485;DHT22;55472;50.060;21.960;2023-04-19T14:50:34;12.30;81.70
68485;DHT22;55472;50.060;21.960;2023-04-19T14:53:00;12.30;82.60
68485;DHT22;55472;50.060;21.960;2023-04-19T14:55:26;12.30;82.20
68485;DHT22;55472;50.060;21.960;2023-04-19T14:57:52;12.30;82.40
68485;DHT22;55472;50.060;21.960;2023-04-19T15:00:19;12.30;82.70
68485;DHT22;55472;50.060;21.960;2023-04-19T15:02:45;12.30;82.30
68485;DHT22;55472;50.060;21.960;2023-04-19T15:05:11;12.30;83.00
68485;DHT22;55472;50.060;21.960;2023-04-19T15:07:37;12.30;82.90
68485;DHT22;55472;50.060;21.960;2023-04-19T15:10:04;12.30;82.60
68485;DHT22;55472;50.060;21.960;2023-04-19T15:12:31;12.30;82.60
68485;DHT22;55472;50.060;21.960;2023-04-19T15:14:57;12.30;83.00
68485;DHT22;55472;50.060;21.960;2023-04-19T15:17:23;12.30;82.70
68485;DHT22;55472;50.060;21.960;2023-04-19T15:19:49;12.30;82.50
68485;DHT22;55472;50.060;21.960;2023-04-19T15:22:15;12.30;83.10
68485;DHT22;55472;50.060;21.960;2023-04-19T15:24:42;12.30;83.30
68485;DHT22;55472;50.060;21.960;2023-04-19T15:27:08;12.30;83.50
68485;DHT22;55472;50.060;21.960;2023-04-19T15:29:34;12.40;84.00
68485;DHT22;55472;50.060;21.960;2023-04-19T15:32:00;12.40;84.30
68485;DHT22;55472;50.060;21.960;2023-04-19T15:34:27;12.40;84.50
68485;DHT22;55472;50.060;21.960;2023-04-19T15:36:53;12.40;84.90
68485;DHT22;55472;50.060;21.960;2023-04-19T15:39:20;12.40;85.20
68485;DHT22;55472;50.060;21.960;2023-04-19T15:41:46;12.40;85.30
68485;DHT22;55472;50.060;21.960;2023-04-19T15:44:12;12.50;85.60
68485;DHT22;55472;50.060;21.960;2023-04-19T15:46:38;12.50;85.90
68485;DHT22;55472;50.060;21.960;2023-04-19T15:49:04;12.50;85.70